Observations for SOUTHEND-ON-SEA, United Kingdom (EGMC)

EGMC 180250Z 00000KT CAVOK M02/// Q1023 
EGMC 180150Z 00000KT CAVOK M01/M02 Q1023
EGMC 180050Z 19001KT CAVOK 01/M00 Q1023 
EGMC 172350Z 20004KT CAVOK 02/00 Q1023  
EGMC 172320Z 19004KT CAVOK 03/00 Q1023  
EGMC 172250Z 23004KT CAVOK 04/01 Q1023  
EGMC 172220Z 20004KT CAVOK 04/01 Q1023  
EGMC 172150Z 21004KT CAVOK 04/01 Q1023  
EGMC 172120Z 26005KT CAVOK 04/01 Q1023  
EGMC 172050Z 19007KT CAVOK 05/01 Q1023  
EGMC 172020Z 20007KT CAVOK 04/00 Q1023  
EGMC 171950Z 20007KT CAVOK 04/00 Q1023  
EGMC 171920Z 17007KT CAVOK 05/00 Q1023  
EGMC 171850Z 14006KT CAVOK 04/01 Q1023  
EGMC 171820Z 13003KT CAVOK 04/00 Q1023  
EGMC 171750Z 12005KT CAVOK 04/00 Q1023  
EGMC 171620Z 11006KT CAVOK 07/M00 Q1022 
EGMC 171550Z 00000KT CAVOK 09/M00 Q1022 
EGMC 171520Z VRB03KT CAVOK 09/M01 Q1022 
EGMC 171450Z VRB03KT CAVOK 09/M01 Q1022 
EGMC 171420Z VRB03KT CAVOK 09/M03 Q1022 
EGMC 171350Z 16005KT 120V260 CAVOK 09/M01 Q1022 
EGMC 171320Z 18005KT 120V210 CAVOK 09/M02 Q1022 
EGMC 171250Z 18005KT 110V210 CAVOK 08/M03 Q1022 
EGMC 171220Z 15005KT 120V190 CAVOK 08/01 Q1022  
EGMC 171150Z 15005KT 120V200 9999 FEW024 08/M00 Q1022   
EGMC 171120Z 12004KT 9999 FEW024 08/01 Q1022
EGMC 171050Z 11003KT CAVOK 08/03 Q1022  
EGMC 171020Z 00000KT CAVOK 06/05 Q1022  
EGMC 170950Z 00000KT 9000 NSC 05/04 Q1022   
EGMC 170920Z 00000KT 4000 HZ NSC 02/01 Q1022
EGMC 170850Z 00000KT 1400 R23/P1500 PRFG NSC M00/M01 Q1022  
EGMC 170820Z 00000KT 0600 R23/P1500 BCFG NSC M01/M02 Q1022  
EGMC 170750Z 00000KT 0300 R23/0250 FZFG NSC M01/M02 Q1021   
EGMC 170720Z 00000KT 0500 R23/0300 FG NSC M02/M03 Q1021 
EGMC 170650Z 00000KT 0500 R23/0300 FG NSC M01/M02 Q1021 
EGMC 170620Z 00000KT 0500 R23/0300 FG NSC M00/M01 Q1021 
EGMC 170550Z 00000KT 0600 R23/0300 R23/0400 FG FEW001 M01/M01 Q1021 
EGMC 170520Z 28002KT 0600 R05/0600 R23/0400 FG FEW001 M01/M01 Q1021 
EGMC 170450Z 00000KT 1400 BR NSC 00/M01 Q1021   
EGMC 170350Z 01002KT 6000 NSC 00/M01 Q1021  
EGMC 170250Z 00000KT 6000 NSC 00/M01 Q1022  
EGMC 170220Z 00000KT 8000 NSC 00/M01 Q1022